Archival Weather

Chicago O'Hare International

Chicago, Illinois (KORD)

Report from: Sunday, February 4, 2024 8:51 PM CST
Current time: Wednesday, April 24, 2024 2:28 PM CDT

Current weather – Weather history – Daily summaries
Weather forecast

Temperature0.0°C (32.0°F)
Wind chill-2.5°C (27.5°F)
Dew point-1.1°C (30.0°F)
Winds 4 kts (2.1 m/s, 4.6 mph) North (360°)
Visibility10 mi. (16.1 km)
Clouds Few clouds 1,000 ft. (305 m)
Few clouds 25,000 ft. (7,620 m)
Altimeter30.06 in.Hg (1018 mB)
Relative humidity92 %
Density altitude-1,934 ft. (-589 m)
Sea-level pressure101.9 kPa (1019 mB, 30.08 in.Hg)
Remarks System requires maintenance
Automated weather observing station with precipitation discriminator
Pressure rising more slowly
Flight conditions Visual Meteorological Conditions
Raw dataKORD 050251Z 36004KT 10SM FEW010 FEW250 00/M01 A3006 RMK AO2 SLP187 T00001011 51003 $
An error has occurred. This application may no longer respond until reloaded. Reload 🗙